Galesville, Maryland
Current Conditions -  °F | °C
As of 9:54 AM on Wednesday 22 Oct 2014 (Local Time) from KNAK Reporting Station
Light Rain Light Rain  
Wind Chill: 56°   Ceiling: 1500
Heat Index: 56°   Visibility: 7mi
Dew Point: 53°   Wind: 15mph
Humidity: 90%   Direction: 340°NNW
Pressure: 29.89"   Gusts: NA
Location:  38.84°N, 76.54°W
Report Text: KNAK 221354Z AUTO 34013KT 7SM -RA BKN015 BKN020 OVC027 13/12 A2989 RMK AO2 SLP122 P0005 T01330117
Loading
Personal Weather Stations






























Interactive Weather Map
Tropical Storm Tracking
New forecast layout! Learn more

10-Day Weather Forecast

Advertisements
Track Severe Weather on mobile